sensor_id;sensor_type;location;lat;lon;timestamp;temperature;humidity
3308;DHT22;1666;48.898;9.182;2023-11-22T00:01:16;5.80;99.90
3308;DHT22;1666;48.898;9.182;2023-11-22T00:03:46;5.70;99.90
3308;DHT22;1666;48.898;9.182;2023-11-22T00:06:17;5.60;99.90
3308;DHT22;1666;48.898;9.182;2023-11-22T00:08:48;5.60;99.90
3308;DHT22;1666;48.898;9.182;2023-11-22T00:11:21;5.60;99.90
3308;DHT22;1666;48.898;9.182;2023-11-22T00:13:51;5.40;99.90
3308;DHT22;1666;48.898;9.182;2023-11-22T00:16:24;5.40;99.90
3308;DHT22;1666;48.898;9.182;2023-11-22T00:18:54;5.40;99.90
3308;DHT22;1666;48.898;9.182;2023-11-22T00:21:24;5.30;99.90
3308;DHT22;1666;48.898;9.182;2023-11-22T00:23:54;5.30;99.90
3308;DHT22;1666;48.898;9.182;2023-11-22T00:26:27;5.30;99.90
3308;DHT22;1666;48.898;9.182;2023-11-22T00:28:59;5.30;99.90
3308;DHT22;1666;48.898;9.182;2023-11-22T00:31:29;5.20;99.90
3308;DHT22;1666;48.898;9.182;2023-11-22T00:33:59;5.20;99.90
3308;DHT22;1666;48.898;9.182;2023-11-22T00:36:29;5.20;99.90
3308;DHT22;1666;48.898;9.182;2023-11-22T00:38:59;5.20;99.90
3308;DHT22;1666;48.898;9.182;2023-11-22T00:41:33;5.20;99.90
3308;DHT22;1666;48.898;9.182;2023-11-22T00:44:04;5.20;99.90
3308;DHT22;1666;48.898;9.182;2023-11-22T00:46:34;5.20;99.90
3308;DHT22;1666;48.898;9.182;2023-11-22T00:49:04;5.20;99.90
3308;DHT22;1666;48.898;9.182;2023-11-22T00:51:35;5.10;99.90
3308;DHT22;1666;48.898;9.182;2023-11-22T00:54:06;5.10;99.90
3308;DHT22;1666;48.898;9.182;2023-11-22T00:56:39;5.10;99.90
3308;DHT22;1666;48.898;9.182;2023-11-22T00:59:09;5.10;99.90
3308;DHT22;1666;48.898;9.182;2023-11-22T01:01:39;5.00;99.90
3308;DHT22;1666;48.898;9.182;2023-11-22T01:04:09;5.10;99.90
3308;DHT22;1666;48.898;9.182;2023-11-22T01:06:40;4.90;99.90
3308;DHT22;1666;48.898;9.182;2023-11-22T01:09:11;4.90;99.90
3308;DHT22;1666;48.898;9.182;2023-11-22T01:11:44;4.90;99.90
3308;DHT22;1666;48.898;9.182;2023-11-22T01:14:14;4.70;97.50
3308;DHT22;1666;48.898;9.182;2023-11-22T01:16:44;4.70;96.80
3308;DHT22;1666;48.898;9.182;2023-11-22T01:19:15;4.70;96.50
3308;DHT22;1666;48.898;9.182;2023-11-22T01:21:45;4.70;93.70
3308;DHT22;1666;48.898;9.182;2023-11-22T01:24:15;4.60;85.60
3308;DHT22;1666;48.898;9.182;2023-11-22T01:26:48;4.70;87.60
3308;DHT22;1666;48.898;9.182;2023-11-22T01:29:18;4.60;68.90
3308;DHT22;1666;48.898;9.182;2023-11-22T01:31:48;4.60;71.20
3308;DHT22;1666;48.898;9.182;2023-11-22T01:34:18;4.60;75.80
3308;DHT22;1666;48.898;9.182;2023-11-22T01:36:49;4.50;59.10
3308;DHT22;1666;48.898;9.182;2023-11-22T01:39:19;4.50;47.90
3308;DHT22;1666;48.898;9.182;2023-11-22T01:41:53;4.50;44.40
3308;DHT22;1666;48.898;9.182;2023-11-22T01:44:23;4.40;29.10
3308;DHT22;1666;48.898;9.182;2023-11-22T01:46:55;4.40;19.70
3308;DHT22;1666;48.898;9.182;2023-11-22T01:49:25;4.40;3.80
3308;DHT22;1666;48.898;9.182;2023-11-22T01:51:55;4.40;1.00
3308;DHT22;1666;48.898;9.182;2023-11-22T01:54:25;4.40;1.00
3308;DHT22;1666;48.898;9.182;2023-11-22T01:56:58;4.40;1.00
3308;DHT22;1666;48.898;9.182;2023-11-22T01:59:29;4.40;1.00
3308;DHT22;1666;48.898;9.182;2023-11-22T02:02:00;4.40;1.00
3308;DHT22;1666;48.898;9.182;2023-11-22T02:04:30;4.40;1.00
3308;DHT22;1666;48.898;9.182;2023-11-22T02:07:03;4.30;1.00
3308;DHT22;1666;48.898;9.182;2023-11-22T02:09:34;4.30;1.00
3308;DHT22;1666;48.898;9.182;2023-11-22T02:12:07;4.30;1.00
3308;DHT22;1666;48.898;9.182;2023-11-22T02:14:37;4.20;1.00
3308;DHT22;1666;48.898;9.182;2023-11-22T02:17:08;4.30;1.00
3308;DHT22;1666;48.898;9.182;2023-11-22T02:19:38;4.20;1.00
3308;DHT22;1666;48.898;9.182;2023-11-22T02:22:12;4.20;1.00
3308;DHT22;1666;48.898;9.182;2023-11-22T02:24:46;4.20;1.00
3308;DHT22;1666;48.898;9.182;2023-11-22T02:27:16;4.20;1.00
3308;DHT22;1666;48.898;9.182;2023-11-22T02:29:46;4.20;1.00
3308;DHT22;1666;48.898;9.182;2023-11-22T02:32:17;4.20;1.00
3308;DHT22;1666;48.898;9.182;2023-11-22T02:34:47;4.10;1.00
3308;DHT22;1666;48.898;9.182;2023-11-22T02:37:17;4.10;1.00
3308;DHT22;1666;48.898;9.182;2023-11-22T02:39:56;4.10;1.00
3308;DHT22;1666;48.898;9.182;2023-11-22T02:42:28;4.10;1.00
3308;DHT22;1666;48.898;9.182;2023-11-22T02:44:58;4.10;1.00
3308;DHT22;1666;48.898;9.182;2023-11-22T02:47:28;4.00;1.00
3308;DHT22;1666;48.898;9.182;2023-11-22T02:49:58;4.00;1.00
3308;DHT22;1666;48.898;9.182;2023-11-22T02:52:29;4.00;1.00
3308;DHT22;1666;48.898;9.182;2023-11-22T02:55:02;4.00;1.00
3308;DHT22;1666;48.898;9.182;2023-11-22T02:57:32;3.90;1.00
3308;DHT22;1666;48.898;9.182;2023-11-22T03:00:02;3.90;1.00
3308;DHT22;1666;48.898;9.182;2023-11-22T03:02:34;3.90;1.00
3308;DHT22;1666;48.898;9.182;2023-11-22T03:05:06;3.90;1.00
3308;DHT22;1666;48.898;9.182;2023-11-22T03:07:36;3.90;1.00
3308;DHT22;1666;48.898;9.182;2023-11-22T03:10:10;3.90;1.00
3308;DHT22;1666;48.898;9.182;2023-11-22T03:12:40;3.90;1.00
3308;DHT22;1666;48.898;9.182;2023-11-22T03:15:10;3.80;1.00
3308;DHT22;1666;48.898;9.182;2023-11-22T03:17:40;3.90;1.00
3308;DHT22;1666;48.898;9.182;2023-11-22T03:20:11;3.90;1.00
3308;DHT22;1666;48.898;9.182;2023-11-22T03:22:43;3.90;1.00
3308;DHT22;1666;48.898;9.182;2023-11-22T03:25:18;3.90;1.00
3308;DHT22;1666;48.898;9.182;2023-11-22T03:27:49;3.90;1.00
3308;DHT22;1666;48.898;9.182;2023-11-22T03:30:19;3.90;1.00
3308;DHT22;1666;48.898;9.182;2023-11-22T03:32:49;3.90;1.00
3308;DHT22;1666;48.898;9.182;2023-11-22T03:35:19;3.90;1.00
3308;DHT22;1666;48.898;9.182;2023-11-22T03:37:49;3.80;1.00
3308;DHT22;1666;48.898;9.182;2023-11-22T03:40:21;3.90;1.00
3308;DHT22;1666;48.898;9.182;2023-11-22T03:42:51;3.90;1.00
3308;DHT22;1666;48.898;9.182;2023-11-22T03:45:22;3.90;1.00
3308;DHT22;1666;48.898;9.182;2023-11-22T03:47:52;3.90;1.00
3308;DHT22;1666;48.898;9.182;2023-11-22T03:50:26;3.90;1.00
3308;DHT22;1666;48.898;9.182;2023-11-22T03:52:56;3.90;1.00
3308;DHT22;1666;48.898;9.182;2023-11-22T03:55:29;3.90;1.00
3308;DHT22;1666;48.898;9.182;2023-11-22T03:57:59;3.90;1.00
3308;DHT22;1666;48.898;9.182;2023-11-22T04:00:28;3.90;1.00
3308;DHT22;1666;48.898;9.182;2023-11-22T04:02:59;3.80;1.00
3308;DHT22;1666;48.898;9.182;2023-11-22T04:05:29;3.80;1.00
3308;DHT22;1666;48.898;9.182;2023-11-22T04:07:59;3.70;1.00
3308;DHT22;1666;48.898;9.182;2023-11-22T04:10:32;3.80;1.00
3308;DHT22;1666;48.898;9.182;2023-11-22T04:13:02;3.80;1.00
3308;DHT22;1666;48.898;9.182;2023-11-22T04:15:32;3.80;1.00
3308;DHT22;1666;48.898;9.182;2023-11-22T04:18:03;3.70;1.00
3308;DHT22;1666;48.898;9.182;2023-11-22T04:20:33;3.70;1.00
3308;DHT22;1666;48.898;9.182;2023-11-22T04:23:03;3.70;1.00
3308;DHT22;1666;48.898;9.182;2023-11-22T04:25:36;3.60;1.00
3308;DHT22;1666;48.898;9.182;2023-11-22T04:28:06;3.70;1.00
3308;DHT22;1666;48.898;9.182;2023-11-22T04:30:37;3.60;1.00
3308;DHT22;1666;48.898;9.182;2023-11-22T04:33:07;3.60;1.00
3308;DHT22;1666;48.898;9.182;2023-11-22T04:35:38;3.60;1.00
3308;DHT22;1666;48.898;9.182;2023-11-22T04:38:09;3.60;1.00
3308;DHT22;1666;48.898;9.182;2023-11-22T04:40:41;3.60;1.00
3308;DHT22;1666;48.898;9.182;2023-11-22T04:43:12;3.60;1.00
3308;DHT22;1666;48.898;9.182;2023-11-22T04:45:42;3.60;1.00
3308;DHT22;1666;48.898;9.182;2023-11-22T04:48:12;3.50;1.00
3308;DHT22;1666;48.898;9.182;2023-11-22T04:50:43;3.60;1.00
3308;DHT22;1666;48.898;9.182;2023-11-22T04:53:13;3.60;1.00
3308;DHT22;1666;48.898;9.182;2023-11-22T04:55:47;3.60;1.00
3308;DHT22;1666;48.898;9.182;2023-11-22T04:58:17;3.60;1.00
3308;DHT22;1666;48.898;9.182;2023-11-22T05:00:47;3.50;1.00
3308;DHT22;1666;48.898;9.182;2023-11-22T05:03:17;3.60;1.00
3308;DHT22;1666;48.898;9.182;2023-11-22T05:05:47;3.60;1.00
3308;DHT22;1666;48.898;9.182;2023-11-22T05:08:17;3.60;1.00
3308;DHT22;1666;48.898;9.182;2023-11-22T05:10:50;3.60;1.00
3308;DHT22;1666;48.898;9.182;2023-11-22T05:13:21;3.60;1.00
3308;DHT22;1666;48.898;9.182;2023-11-22T05:15:51;3.50;1.00
3308;DHT22;1666;48.898;9.182;2023-11-22T05:18:21;3.50;1.00
3308;DHT22;1666;48.898;9.182;2023-11-22T05:20:52;3.50;1.00
3308;DHT22;1666;48.898;9.182;2023-11-22T05:23:22;3.50;1.00
3308;DHT22;1666;48.898;9.182;2023-11-22T05:25:55;3.60;1.00
3308;DHT22;1666;48.898;9.182;2023-11-22T05:28:26;3.60;1.00
3308;DHT22;1666;48.898;9.182;2023-11-22T05:30:56;3.50;1.00
3308;DHT22;1666;48.898;9.182;2023-11-22T05:33:26;3.50;1.00
3308;DHT22;1666;48.898;9.182;2023-11-22T05:35:56;3.40;1.00
3308;DHT22;1666;48.898;9.182;2023-11-22T05:38:26;3.50;1.00
3308;DHT22;1666;48.898;9.182;2023-11-22T05:40:59;3.50;1.00
3308;DHT22;1666;48.898;9.182;2023-11-22T05:43:29;3.50;1.00
3308;DHT22;1666;48.898;9.182;2023-11-22T05:46:03;3.40;1.00
3308;DHT22;1666;48.898;9.182;2023-11-22T05:48:36;3.40;1.00
3308;DHT22;1666;48.898;9.182;2023-11-22T05:51:07;3.40;1.00
3308;DHT22;1666;48.898;9.182;2023-11-22T05:53:37;3.30;1.00
3308;DHT22;1666;48.898;9.182;2023-11-22T05:56:10;3.30;1.00
3308;DHT22;1666;48.898;9.182;2023-11-22T05:58:41;3.30;1.00
3308;DHT22;1666;48.898;9.182;2023-11-22T06:01:11;3.30;1.00
3308;DHT22;1666;48.898;9.182;2023-11-22T06:03:42;3.40;1.00
3308;DHT22;1666;48.898;9.182;2023-11-22T06:06:12;3.30;1.00
3308;DHT22;1666;48.898;9.182;2023-11-22T06:08:44;3.30;1.00
3308;DHT22;1666;48.898;9.182;2023-11-22T06:11:16;3.40;1.00
3308;DHT22;1666;48.898;9.182;2023-11-22T06:13:47;3.30;1.00
3308;DHT22;1666;48.898;9.182;2023-11-22T06:16:17;3.30;1.00
3308;DHT22;1666;48.898;9.182;2023-11-22T06:18:47;3.40;1.00
3308;DHT22;1666;48.898;9.182;2023-11-22T06:21:17;3.40;1.00
3308;DHT22;1666;48.898;9.182;2023-11-22T06:23:47;3.30;1.00
3308;DHT22;1666;48.898;9.182;2023-11-22T06:26:20;3.20;1.00
3308;DHT22;1666;48.898;9.182;2023-11-22T06:28:50;3.10;1.00
3308;DHT22;1666;48.898;9.182;2023-11-22T06:31:20;3.10;1.00
3308;DHT22;1666;48.898;9.182;2023-11-22T06:33:50;3.00;1.00
3308;DHT22;1666;48.898;9.182;2023-11-22T06:36:20;3.00;1.00
3308;DHT22;1666;48.898;9.182;2023-11-22T06:38:50;3.00;1.00
3308;DHT22;1666;48.898;9.182;2023-11-22T06:41:24;2.90;1.00
3308;DHT22;1666;48.898;9.182;2023-11-22T06:43:56;3.00;1.00
3308;DHT22;1666;48.898;9.182;2023-11-22T06:46:26;2.90;1.00
3308;DHT22;1666;48.898;9.182;2023-11-22T06:48:56;2.80;1.00
3308;DHT22;1666;48.898;9.182;2023-11-22T06:51:26;2.80;1.00
3308;DHT22;1666;48.898;9.182;2023-11-22T06:53:56;2.80;1.00
3308;DHT22;1666;48.898;9.182;2023-11-22T06:56:30;2.90;1.00
3308;DHT22;1666;48.898;9.182;2023-11-22T06:59:00;2.80;1.00
3308;DHT22;1666;48.898;9.182;2023-11-22T07:01:30;2.80;1.00
3308;DHT22;1666;48.898;9.182;2023-11-22T07:04:00;2.80;1.00
3308;DHT22;1666;48.898;9.182;2023-11-22T07:06:32;2.80;1.00
3308;DHT22;1666;48.898;9.182;2023-11-22T07:09:04;2.80;1.00
3308;DHT22;1666;48.898;9.182;2023-11-22T07:11:39;2.70;1.00
3308;DHT22;1666;48.898;9.182;2023-11-22T07:14:11;2.70;1.00
3308;DHT22;1666;48.898;9.182;2023-11-22T07:16:41;2.70;1.00
3308;DHT22;1666;48.898;9.182;2023-11-22T07:19:11;2.60;1.00
3308;DHT22;1666;48.898;9.182;2023-11-22T07:21:41;2.60;1.00
3308;DHT22;1666;48.898;9.182;2023-11-22T07:24:11;2.60;1.00
3308;DHT22;1666;48.898;9.182;2023-11-22T07:26:46;2.60;1.00
3308;DHT22;1666;48.898;9.182;2023-11-22T07:29:16;2.60;1.00
3308;DHT22;1666;48.898;9.182;2023-11-22T07:31:46;2.60;1.00
3308;DHT22;1666;48.898;9.182;2023-11-22T07:34:16;2.60;1.00
3308;DHT22;1666;48.898;9.182;2023-11-22T07:36:46;2.50;1.00
3308;DHT22;1666;48.898;9.182;2023-11-22T07:39:17;2.50;1.00
3308;DHT22;1666;48.898;9.182;2023-11-22T07:41:56;2.60;1.00
3308;DHT22;1666;48.898;9.182;2023-11-22T07:44:27;2.50;1.00
3308;DHT22;1666;48.898;9.182;2023-11-22T07:46:59;2.50;1.00
3308;DHT22;1666;48.898;9.182;2023-11-22T07:49:29;2.60;1.00
3308;DHT22;1666;48.898;9.182;2023-11-22T07:52:04;2.50;1.00
3308;DHT22;1666;48.898;9.182;2023-11-22T07:54:34;2.40;1.00
3308;DHT22;1666;48.898;9.182;2023-11-22T07:57:08;2.50;1.00
3308;DHT22;1666;48.898;9.182;2023-11-22T07:59:38;2.50;1.00
3308;DHT22;1666;48.898;9.182;2023-11-22T08:02:09;2.40;1.00
3308;DHT22;1666;48.898;9.182;2023-11-22T08:04:39;2.30;1.00
3308;DHT22;1666;48.898;9.182;2023-11-22T08:07:12;2.40;1.00
3308;DHT22;1666;48.898;9.182;2023-11-22T08:09:42;2.50;1.00
3308;DHT22;1666;48.898;9.182;2023-11-22T08:12:15;2.40;1.00
3308;DHT22;1666;48.898;9.182;2023-11-22T08:14:46;2.40;1.00
3308;DHT22;1666;48.898;9.182;2023-11-22T08:17:16;2.30;1.00
3308;DHT22;1666;48.898;9.182;2023-11-22T08:19:50;2.20;1.00
3308;DHT22;1666;48.898;9.182;2023-11-22T08:22:21;2.20;1.00
3308;DHT22;1666;48.898;9.182;2023-11-22T08:24:53;2.20;1.00
3308;DHT22;1666;48.898;9.182;2023-11-22T08:27:27;2.20;1.00
3308;DHT22;1666;48.898;9.182;2023-11-22T08:29:57;2.30;1.00
3308;DHT22;1666;48.898;9.182;2023-11-22T08:32:32;2.30;1.00
3308;DHT22;1666;48.898;9.182;2023-11-22T08:35:02;2.30;1.00
3308;DHT22;1666;48.898;9.182;2023-11-22T08:37:35;2.20;1.00
3308;DHT22;1666;48.898;9.182;2023-11-22T08:40:07;2.10;1.00
3308;DHT22;1666;48.898;9.182;2023-11-22T08:42:41;2.10;1.00
3308;DHT22;1666;48.898;9.182;2023-11-22T08:45:11;2.10;1.00
3308;DHT22;1666;48.898;9.182;2023-11-22T08:47:41;2.00;1.00
3308;DHT22;1666;48.898;9.182;2023-11-22T08:50:13;2.00;1.00
3308;DHT22;1666;48.898;9.182;2023-11-22T08:52:44;1.90;1.00
3308;DHT22;1666;48.898;9.182;2023-11-22T08:55:14;2.00;1.00
3308;DHT22;1666;48.898;9.182;2023-11-22T08:57:50;2.00;1.00
3308;DHT22;1666;48.898;9.182;2023-11-22T09:00:20;2.10;1.00
3308;DHT22;1666;48.898;9.182;2023-11-22T09:02:55;2.20;1.00
3308;DHT22;1666;48.898;9.182;2023-11-22T09:05:25;2.20;1.00
3308;DHT22;1666;48.898;9.182;2023-11-22T09:07:56;2.00;1.00
3308;DHT22;1666;48.898;9.182;2023-11-22T09:10:38;2.00;1.00
3308;DHT22;1666;48.898;9.182;2023-11-22T09:13:11;2.10;1.00
3308;DHT22;1666;48.898;9.182;2023-11-22T09:15:43;2.10;1.00
3308;DHT22;1666;48.898;9.182;2023-11-22T09:18:13;2.10;1.00
3308;DHT22;1666;48.898;9.182;2023-11-22T09:20:44;2.10;1.00
3308;DHT22;1666;48.898;9.182;2023-11-22T09:23:15;2.20;1.00
3308;DHT22;1666;48.898;9.182;2023-11-22T09:25:45;2.20;1.00
3308;DHT22;1666;48.898;9.182;2023-11-22T09:28:18;2.30;1.00
3308;DHT22;1666;48.898;9.182;2023-11-22T09:30:48;2.30;1.00
3308;DHT22;1666;48.898;9.182;2023-11-22T09:33:19;2.40;1.00
3308;DHT22;1666;48.898;9.182;2023-11-22T09:35:50;2.20;1.00
3308;DHT22;1666;48.898;9.182;2023-11-22T09:38:20;2.50;1.00
3308;DHT22;1666;48.898;9.182;2023-11-22T09:40:50;2.40;1.00
3308;DHT22;1666;48.898;9.182;2023-11-22T09:43:23;2.30;1.00
3308;DHT22;1666;48.898;9.182;2023-11-22T09:45:56;2.40;1.00
3308;DHT22;1666;48.898;9.182;2023-11-22T09:48:30;2.60;1.00
3308;DHT22;1666;48.898;9.182;2023-11-22T09:51:04;2.60;1.00
3308;DHT22;1666;48.898;9.182;2023-11-22T09:53:40;2.60;1.00
3308;DHT22;1666;48.898;9.182;2023-11-22T09:56:10;2.60;1.00
3308;DHT22;1666;48.898;9.182;2023-11-22T09:58:44;2.70;1.00
3308;DHT22;1666;48.898;9.182;2023-11-22T10:01:16;2.60;1.00
3308;DHT22;1666;48.898;9.182;2023-11-22T10:03:47;2.80;1.00
3308;DHT22;1666;48.898;9.182;2023-11-22T10:06:18;2.80;1.00
3308;DHT22;1666;48.898;9.182;2023-11-22T10:08:48;2.80;1.00
3308;DHT22;1666;48.898;9.182;2023-11-22T10:11:20;2.80;1.00
3308;DHT22;1666;48.898;9.182;2023-11-22T10:13:53;2.80;1.00
3308;DHT22;1666;48.898;9.182;2023-11-22T10:16:24;2.80;1.00
3308;DHT22;1666;48.898;9.182;2023-11-22T10:18:58;2.80;1.00
3308;DHT22;1666;48.898;9.182;2023-11-22T10:21:29;2.90;1.00
3308;DHT22;1666;48.898;9.182;2023-11-22T10:24:01;3.00;1.00
3308;DHT22;1666;48.898;9.182;2023-11-22T10:26:31;3.00;1.00
3308;DHT22;1666;48.898;9.182;2023-11-22T10:29:05;3.00;1.00
3308;DHT22;1666;48.898;9.182;2023-11-22T10:31:36;3.10;1.00
3308;DHT22;1666;48.898;9.182;2023-11-22T10:34:09;3.00;1.00
3308;DHT22;1666;48.898;9.182;2023-11-22T10:36:41;3.10;1.00
3308;DHT22;1666;48.898;9.182;2023-11-22T10:39:11;3.10;1.00
3308;DHT22;1666;48.898;9.182;2023-11-22T10:41:45;3.10;1.00
3308;DHT22;1666;48.898;9.182;2023-11-22T10:44:21;3.30;1.00
3308;DHT22;1666;48.898;9.182;2023-11-22T10:46:52;3.40;1.00
3308;DHT22;1666;48.898;9.182;2023-11-22T10:49:23;3.50;1.00
3308;DHT22;1666;48.898;9.182;2023-11-22T10:51:53;3.60;1.00
3308;DHT22;1666;48.898;9.182;2023-11-22T10:54:24;3.60;1.00
3308;DHT22;1666;48.898;9.182;2023-11-22T10:56:55;3.50;1.00
3308;DHT22;1666;48.898;9.182;2023-11-22T10:59:31;3.40;1.00
3308;DHT22;1666;48.898;9.182;2023-11-22T11:02:03;3.50;1.00
3308;DHT22;1666;48.898;9.182;2023-11-22T11:04:39;3.30;1.00
3308;DHT22;1666;48.898;9.182;2023-11-22T11:07:14;3.40;1.00
3308;DHT22;1666;48.898;9.182;2023-11-22T11:09:49;3.30;1.00
3308;DHT22;1666;48.898;9.182;2023-11-22T11:12:20;3.20;1.00
3308;DHT22;1666;48.898;9.182;2023-11-22T11:14:53;3.20;1.00
3308;DHT22;1666;48.898;9.182;2023-11-22T11:17:24;3.20;1.00
3308;DHT22;1666;48.898;9.182;2023-11-22T11:19:55;3.30;1.00
3308;DHT22;1666;48.898;9.182;2023-11-22T11:22:27;3.40;1.00
3308;DHT22;1666;48.898;9.182;2023-11-22T11:25:01;3.50;1.00
3308;DHT22;1666;48.898;9.182;2023-11-22T11:27:33;3.40;1.00
3308;DHT22;1666;48.898;9.182;2023-11-22T11:33:19;3.30;1.00
3308;DHT22;1666;48.898;9.182;2023-11-22T11:35:50;3.30;1.00
3308;DHT22;1666;48.898;9.182;2023-11-22T11:38:20;3.30;1.00
3308;DHT22;1666;48.898;9.182;2023-11-22T11:40:52;3.40;1.00
3308;DHT22;1666;48.898;9.182;2023-11-22T11:43:39;3.30;1.00
3308;DHT22;1666;48.898;9.182;2023-11-22T11:46:12;3.30;1.00
3308;DHT22;1666;48.898;9.182;2023-11-22T11:48:48;3.30;1.00
3308;DHT22;1666;48.898;9.182;2023-11-22T11:51:22;3.30;1.00
3308;DHT22;1666;48.898;9.182;2023-11-22T11:53:52;3.30;1.00
3308;DHT22;1666;48.898;9.182;2023-11-22T11:56:23;3.30;1.00
3308;DHT22;1666;48.898;9.182;2023-11-22T11:58:57;3.10;1.00
3308;DHT22;1666;48.898;9.182;2023-11-22T12:01:30;3.10;1.00
3308;DHT22;1666;48.898;9.182;2023-11-22T12:04:03;3.20;1.00
3308;DHT22;1666;48.898;9.182;2023-11-22T12:06:33;3.30;1.00
3308;DHT22;1666;48.898;9.182;2023-11-22T12:09:06;3.20;1.00
3308;DHT22;1666;48.898;9.182;2023-11-22T12:11:36;3.20;1.00
3308;DHT22;1666;48.898;9.182;2023-11-22T12:14:06;3.10;1.00
3308;DHT22;1666;48.898;9.182;2023-11-22T12:16:36;3.10;1.00
3308;DHT22;1666;48.898;9.182;2023-11-22T12:19:09;3.10;1.00
3308;DHT22;1666;48.898;9.182;2023-11-22T12:21:39;3.20;1.00
3308;DHT22;1666;48.898;9.182;2023-11-22T12:24:09;3.30;1.00
3308;DHT22;1666;48.898;9.182;2023-11-22T12:26:43;3.20;1.00
3308;DHT22;1666;48.898;9.182;2023-11-22T12:29:17;3.10;1.00
3308;DHT22;1666;48.898;9.182;2023-11-22T12:31:47;3.00;1.00
3308;DHT22;1666;48.898;9.182;2023-11-22T12:34:22;3.10;1.00
3308;DHT22;1666;48.898;9.182;2023-11-22T12:36:53;3.10;1.00
3308;DHT22;1666;48.898;9.182;2023-11-22T12:39:23;3.20;1.00
3308;DHT22;1666;48.898;9.182;2023-11-22T12:41:54;3.10;1.00
3308;DHT22;1666;48.898;9.182;2023-11-22T12:44:47;3.10;1.00
3308;DHT22;1666;48.898;9.182;2023-11-22T12:47:31;3.00;1.00
3308;DHT22;1666;48.898;9.182;2023-11-22T12:50:10;2.90;1.00
3308;DHT22;1666;48.898;9.182;2023-11-22T12:52:59;3.00;1.00
3308;DHT22;1666;48.898;9.182;2023-11-22T12:55:29;3.00;1.00
3308;DHT22;1666;48.898;9.182;2023-11-22T12:58:01;3.10;1.00
3308;DHT22;1666;48.898;9.182;2023-11-22T13:00:31;3.10;1.00
3308;DHT22;1666;48.898;9.182;2023-11-22T13:03:01;3.00;1.00
3308;DHT22;1666;48.898;9.182;2023-11-22T13:05:35;3.00;1.00
3308;DHT22;1666;48.898;9.182;2023-11-22T13:08:05;3.10;1.00
3308;DHT22;1666;48.898;9.182;2023-11-22T13:10:38;3.10;1.00
3308;DHT22;1666;48.898;9.182;2023-11-22T13:13:08;3.00;1.00
3308;DHT22;1666;48.898;9.182;2023-11-22T13:15:39;3.00;1.00
3308;DHT22;1666;48.898;9.182;2023-11-22T13:18:10;3.10;1.00
3308;DHT22;1666;48.898;9.182;2023-11-22T13:20:42;3.10;1.00
3308;DHT22;1666;48.898;9.182;2023-11-22T13:23:13;3.10;1.00
3308;DHT22;1666;48.898;9.182;2023-11-22T13:25:45;3.30;1.00
3308;DHT22;1666;48.898;9.182;2023-11-22T13:28:15;3.20;1.00
3308;DHT22;1666;48.898;9.182;2023-11-22T13:30:45;3.20;1.00
3308;DHT22;1666;48.898;9.182;2023-11-22T13:33:16;3.10;1.00
3308;DHT22;1666;48.898;9.182;2023-11-22T13:35:48;3.10;1.00
3308;DHT22;1666;48.898;9.182;2023-11-22T13:38:20;3.00;1.00
3308;DHT22;1666;48.898;9.182;2023-11-22T13:40:50;3.00;1.00
3308;DHT22;1666;48.898;9.182;2023-11-22T13:43:21;3.00;1.00
3308;DHT22;1666;48.898;9.182;2023-11-22T13:45:51;3.10;1.00
3308;DHT22;1666;48.898;9.182;2023-11-22T13:48:21;3.10;1.00
3308;DHT22;1666;48.898;9.182;2023-11-22T13:50:54;3.00;1.00
3308;DHT22;1666;48.898;9.182;2023-11-22T13:53:27;3.00;1.00
3308;DHT22;1666;48.898;9.182;2023-11-22T13:56:01;3.10;1.00
3308;DHT22;1666;48.898;9.182;2023-11-22T13:58:35;3.10;1.00
3308;DHT22;1666;48.898;9.182;2023-11-22T14:01:05;3.10;1.00
3308;DHT22;1666;48.898;9.182;2023-11-22T14:03:40;3.00;1.00
3308;DHT22;1666;48.898;9.182;2023-11-22T14:06:13;3.00;1.00
3308;DHT22;1666;48.898;9.182;2023-11-22T14:08:44;3.00;1.00
3308;DHT22;1666;48.898;9.182;2023-11-22T14:11:14;3.00;1.00
3308;DHT22;1666;48.898;9.182;2023-11-22T14:13:44;3.10;1.00
3308;DHT22;1666;48.898;9.182;2023-11-22T14:16:14;3.00;1.00
3308;DHT22;1666;48.898;9.182;2023-11-22T14:18:45;3.00;1.00
3308;DHT22;1666;48.898;9.182;2023-11-22T14:21:18;3.00;1.00
3308;DHT22;1666;48.898;9.182;2023-11-22T14:23:48;3.00;1.00
3308;DHT22;1666;48.898;9.182;2023-11-22T14:26:20;2.90;1.00
3308;DHT22;1666;48.898;9.182;2023-11-22T14:28:52;2.90;1.00
3308;DHT22;1666;48.898;9.182;2023-11-22T14:31:22;3.00;1.00
3308;DHT22;1666;48.898;9.182;2023-11-22T14:33:52;3.10;1.00
3308;DHT22;1666;48.898;9.182;2023-11-22T14:36:26;3.10;1.00
3308;DHT22;1666;48.898;9.182;2023-11-22T14:38:56;3.20;1.00
3308;DHT22;1666;48.898;9.182;2023-11-22T14:41:27;3.10;1.00
3308;DHT22;1666;48.898;9.182;2023-11-22T14:43:57;3.00;1.00
3308;DHT22;1666;48.898;9.182;2023-11-22T14:46:27;3.00;1.00
3308;DHT22;1666;48.898;9.182;2023-11-22T14:48:57;3.00;1.00
3308;DHT22;1666;48.898;9.182;2023-11-22T14:51:30;2.90;1.00
3308;DHT22;1666;48.898;9.182;2023-11-22T14:54:00;3.00;1.00
3308;DHT22;1666;48.898;9.182;2023-11-22T14:56:30;2.90;1.00
3308;DHT22;1666;48.898;9.182;2023-11-22T14:59:01;2.90;1.00
3308;DHT22;1666;48.898;9.182;2023-11-22T15:01:31;2.90;1.00
3308;DHT22;1666;48.898;9.182;2023-11-22T15:04:01;2.90;1.00
3308;DHT22;1666;48.898;9.182;2023-11-22T15:06:34;2.90;1.00
3308;DHT22;1666;48.898;9.182;2023-11-22T15:09:05;2.90;1.00
3308;DHT22;1666;48.898;9.182;2023-11-22T15:11:37;2.90;1.00
3308;DHT22;1666;48.898;9.182;2023-11-22T15:14:08;2.90;1.00
3308;DHT22;1666;48.898;9.182;2023-11-22T15:16:38;2.90;1.00
3308;DHT22;1666;48.898;9.182;2023-11-22T15:19:08;3.00;1.00
3308;DHT22;1666;48.898;9.182;2023-11-22T15:21:41;2.90;1.00
3308;DHT22;1666;48.898;9.182;2023-11-22T15:24:11;2.90;1.00
3308;DHT22;1666;48.898;9.182;2023-11-22T15:26:41;3.00;1.00
3308;DHT22;1666;48.898;9.182;2023-11-22T15:29:11;2.90;1.00
3308;DHT22;1666;48.898;9.182;2023-11-22T15:31:43;3.00;1.00
3308;DHT22;1666;48.898;9.182;2023-11-22T15:34:13;3.10;1.00
3308;DHT22;1666;48.898;9.182;2023-11-22T15:36:46;3.00;1.00
3308;DHT22;1666;48.898;9.182;2023-11-22T15:39:16;2.90;1.00
3308;DHT22;1666;48.898;9.182;2023-11-22T15:41:49;2.90;1.00
3308;DHT22;1666;48.898;9.182;2023-11-22T15:44:20;2.90;1.00
3308;DHT22;1666;48.898;9.182;2023-11-22T15:46:50;3.00;1.00
3308;DHT22;1666;48.898;9.182;2023-11-22T15:49:20;3.00;1.00
3308;DHT22;1666;48.898;9.182;2023-11-22T15:51:53;3.00;1.00
3308;DHT22;1666;48.898;9.182;2023-11-22T15:54:23;2.90;1.00
3308;DHT22;1666;48.898;9.182;2023-11-22T15:56:53;3.00;1.00
3308;DHT22;1666;48.898;9.182;2023-11-22T15:59:23;2.90;1.00
3308;DHT22;1666;48.898;9.182;2023-11-22T16:01:53;2.90;1.00
3308;DHT22;1666;48.898;9.182;2023-11-22T16:04:24;3.00;1.00
3308;DHT22;1666;48.898;9.182;2023-11-22T16:06:57;2.90;1.00
3308;DHT22;1666;48.898;9.182;2023-11-22T16:09:29;2.90;1.00
3308;DHT22;1666;48.898;9.182;2023-11-22T16:12:00;2.90;1.00
3308;DHT22;1666;48.898;9.182;2023-11-22T16:14:30;3.00;1.00
3308;DHT22;1666;48.898;9.182;2023-11-22T16:17:00;3.00;1.00
3308;DHT22;1666;48.898;9.182;2023-11-22T16:19:32;3.00;1.00
3308;DHT22;1666;48.898;9.182;2023-11-22T16:22:04;3.00;1.00
3308;DHT22;1666;48.898;9.182;2023-11-22T16:24:34;2.80;1.00
3308;DHT22;1666;48.898;9.182;2023-11-22T16:27:05;2.80;1.00
3308;DHT22;1666;48.898;9.182;2023-11-22T16:29:34;2.80;1.00
3308;DHT22;1666;48.898;9.182;2023-11-22T16:32:05;2.90;1.00
3308;DHT22;1666;48.898;9.182;2023-11-22T16:34:35;3.00;1.00
3308;DHT22;1666;48.898;9.182;2023-11-22T16:37:08;3.10;1.00
3308;DHT22;1666;48.898;9.182;2023-11-22T16:39:38;3.00;1.00
3308;DHT22;1666;48.898;9.182;2023-11-22T16:42:08;3.10;1.00
3308;DHT22;1666;48.898;9.182;2023-11-22T16:44:38;3.20;1.00
3308;DHT22;1666;48.898;9.182;2023-11-22T16:47:10;3.00;1.00
3308;DHT22;1666;48.898;9.182;2023-11-22T16:49:44;3.00;1.00
3308;DHT22;1666;48.898;9.182;2023-11-22T16:52:16;2.90;1.00
3308;DHT22;1666;48.898;9.182;2023-11-22T16:54:56;3.00;1.00
3308;DHT22;1666;48.898;9.182;2023-11-22T16:57:26;2.90;1.00
3308;DHT22;1666;48.898;9.182;2023-11-22T16:59:56;2.80;1.00
3308;DHT22;1666;48.898;9.182;2023-11-22T17:02:26;2.70;1.00